Tiempo atmosférico en la estación meteorológica de Cervantes, Lugo (1020 m.)

Fecha
DESCASC
Temp. máxima en grados centígrados (hora)
DESCASC
Temp. mínima en grados centígrados (hora)
DESCASC
Temp. media en grados centígrados
DESCASC
Racha de viento máxima en m/sg (hora)
DESCASC
Velocidad máxima media en intervalos de 10 minutos(hora)
DESCASC
Precipitaciones diarias en mm
DESCASC
Precipitaciones de 00:00 a 06:00 en mm
DESCASC
Precipitaciones de 06:00 a 12:00 en mm
DESCASC
Precipitaciones de 12:00 a 18:00 en mm
DESCASC
Precipitaciones de 18:00 a 24:00 en mm
DESCASC
22-10-2017 14.2 (17:20) 3.8 (04:20) 9 3.89 (16:10) 2.22 (06:50) 0 0 0 0 0
21-10-2017 14.3 (00:00) 4.6 (23:50) 9.5 10 (01:30) 5 (01:30) 5.4 5.2 0.2 0 0
20-10-2017 18.4 (17:10) 9.2 (09:10) 13.8 9.17 (21:10) 4.17 (13:00) 0.2 0.2 0 0 0
19-10-2017 10.7 (16:40) 5 (00:00) 7.8 7.5 (16:50) 3.61 (17:50) 4 0 0 1.2 2.8
18-10-2017 10.2 (14:10) 5.7 (00:00) 7.9 8.61 (03:10) 3.89 (02:00) 9.8 3 0.8 2.4 3.6
17-10-2017 17.2 (00:30) 9.4 (00:00) 13.3 12.22 (03:50) 6.39 (03:50) 7.4 0 7.2 0 0.2
16-10-2017 22.1 (01:30) 15.7 (00:00) 18.9 11.94 (02:30) 5.83 (01:30) 0 0 0 0 0
15-10-2017 25.6 (14:10) 19.1 (00:00) 22.4 12.78 (23:50) 6.39 (23:50) 0 0 0 0 0
14-10-2017 26.8 (16:50) 14 (00:00) 20.4 9.17 (08:00) 4.72 (13:10) 0 0 0 0 0
13-10-2017 25 (14:40) 14.3 (00:00) 19.7 5.83 (13:00) 3.33 (13:00) 0 0 0 0 0
12-10-2017 26.4 (16:50) 12.6 (00:00) 19.5 7.78 (12:50) 4.44 (12:40) 0 0 0 0 0
11-10-2017 23.7 (12:40) 12.6 (00:00) 18.2 10 (17:20) 3.33 (17:20) 0 0 0 0 0
10-10-2017 25.3 (15:50) 12.9 (00:00) 19.1 4.17 (17:50) 2.22 (22:20) 0 0 0 0 0
09-10-2017 24.7 (17:00) 12.5 (00:00) 18.6 4.72 (16:20) 2.78 (20:20) 0 0 0 0 0
08-10-2017 26.1 (15:40) 13.7 (00:00) 19.9 4.44 (19:00) 2.78 (21:10) 0 0 0 0 0
07-10-2017 26.8 (16:20) 11.4 (00:00) 19.1 4.72 (13:10) 3.06 (13:20) 0 0 0 0 0
06-10-2017 24.8 (17:00) 7.7 (00:00) 16.2 5 (18:20) 2.22 (19:00) 0 0 0 0 0
05-10-2017 26.4 (17:00) 13.1 (00:00) 19.8 5.56 (18:40) 2.78 (19:50) 0 0 0 0 0
04-10-2017 28.1 (16:00) 12.5 (00:00) 20.3 11.94 (03:50) 5 (04:50) 0 0 0 0 0
03-10-2017 26.4 (16:00) 12.5 (00:00) 19.4 5.83 (18:00) 2.78 (20:00) 0 0 0 0 0
02-10-2017 27.5 (15:50) 13.9 (00:00) 20.7 5.28 (17:00) 2.5 (22:50) 0 0 0 0 0
01-10-2017 22.1 (17:30) 10.3 (00:00) 16.2 4.44 (13:50) 2.22 (20:20) 0.2 0 0.2 0 0
30-09-2017 17.6 (17:40) 11.4 (00:00) 14.5 6.39 (18:20) 2.5 (14:10) 0 0 0 0 0
29-09-2017 21.9 (12:00) 13 (00:00) 17.4 5.83 (11:30) 2.78 (07:00) 0 0 0 0 0
28-09-2017 25.4 (17:20) 13.4 (00:00) 19.4 7.78 (11:30) 4.17 (11:20) 0 0 0 0 0
27-09-2017 24.3 (17:10) 11.6 (00:00) 17.9 8.61 (14:50) 3.61 (13:30) 0 0 0 0 0
26-09-2017 21.9 (16:00) 7.5 (00:00) 14.7 7.22 (13:00) 3.89 (12:30) 0 0 0 0 0
25-09-2017 18.3 (17:20) 9.3 (00:00) 13.8 4.44 (21:40) 2.5 (21:20) 1 0.8 0.2 0 0
24-09-2017 23.4 (13:30) 10.5 (00:00) 16.9 9.72 (13:40) 3.61 (12:30) 5.4 0 0 0 5.4
23-09-2017 24.4 (15:20) 13 (00:00) 18.7 8.89 (12:10) 4.72 (04:10) 0 0 0 0 0

Gráficas

Temp. máximas Temp. mínimas Temp. medias Precipitaciones Rachas de viento máximas Velocidades máximas media en intervalos de 10 minutos

Datos horarios

Fecha y hora oficial Temperatura (ºC) Velocidad del viento (km/h) Dirección del viento Racha (km/h) Dirección de racha Precipitación (mm) Presión (hPa) Tendencia (hPa) Humedad (%)
2017-10-22 23:00:00 7.7 3 Noroeste 5 Noroeste 0 -- -- 75
2017-10-22 22:00:00 7.8 2 Noroeste 8 Norte 0 -- -- 76
2017-10-22 21:00:00 8.2 3 Noroeste 5 Noroeste 0 -- -- 74
2017-10-22 20:00:00 8.7 4 Norte 6 Norte 0 -- -- 71
2017-10-22 19:00:00 9.5 2 Norte 8 Norte 0 -- -- 69
2017-10-22 18:00:00 12.4 4 Norte 13 Norte 0 -- -- 58
2017-10-22 17:00:00 13.8 5 Nordeste 14 Norte 0 -- -- 56
2017-10-22 16:00:00 12.8 6 Nordeste 13 Nordeste 0 -- -- 59
2017-10-22 15:00:00 12.6 5 Nordeste 13 Sudoeste 0 -- -- 62
2017-10-22 14:00:00 11.6 4 Sudeste 11 Sudeste 0 -- -- 61
2017-10-22 13:00:00 10.8 6 Sur 12 Sudeste 0 -- -- 60
2017-10-22 12:00:00 10.7 4 Sudeste 10 Sudeste 0 -- -- 59
2017-10-22 11:00:00 10.4 3 Sur 6 Sur 0 -- -- 63
2017-10-22 10:00:00 6 0 Calma 9 Noroeste 0 -- -- 89
2017-10-22 09:00:00 3.9 5 Noroeste 10 Noroeste 0 -- -- 91
2017-10-22 08:00:00 4.2 5 Norte 12 Norte 0 -- -- 88
2017-10-22 07:00:00 4.6 6 Noroeste 11 Noroeste 0 -- -- 85
2017-10-22 06:00:00 4.4 6 Norte 9 Norte 0 -- -- 86
2017-10-22 05:00:00 4.2 4 Norte 8 Norte 0 -- -- 85
2017-10-22 04:00:00 4.2 2 Norte 6 Norte 0 -- -- 86
2017-10-22 03:00:00 4.1 3 Noroeste 5 Norte 0 -- -- 92
2017-10-22 02:00:00 4.3 5 Norte 9 Noroeste 0 -- -- 91
2017-10-22 01:00:00 4.5 7 Norte 10 Norte 0 -- -- 90
2017-10-22 00:00:00 4.7 6 Norte 10 Noroeste 0 -- -- 90
2017-10-21 23:00:00 5.2 4 Norte 9 Norte 0 -- -- 89
2017-10-21 22:00:00 6.3 4 Norte 12 Norte 0 -- -- 82
2017-10-21 21:00:00 7 4 Norte 14 Oeste 0 -- -- 82
2017-10-21 20:00:00 7 5 Norte 15 Norte 0 -- -- 77
2017-10-21 19:00:00 8.4 4 Norte 11 Norte 0 -- -- 79
2017-10-21 18:00:00 9.1 3 Noroeste 17 Noroeste 0 -- -- 75
2017-10-21 17:00:00 9.5 3 Nordeste 18 Noroeste 0 -- -- 76
2017-10-21 16:00:00 9.9 8 Norte 17 Noroeste 0 -- -- 69
2017-10-21 15:00:00 9.2 5 Este 18 Noroeste 0 -- -- 78
2017-10-21 14:00:00 9.1 4 Norte 17 Sur 0 -- -- 80
2017-10-21 13:00:00 9.2 4 Este 23 Norte 0 -- -- 80
2017-10-21 12:00:00 9.5 8 Norte 27 Norte 0 -- -- 76
2017-10-21 11:00:00 7.6 8 Norte 23 Norte 0.2 -- -- 89
2017-10-21 10:00:00 7.4 4 Nordeste 14 Norte 0 -- -- 88
2017-10-21 09:00:00 6.1 2 Nordeste 16 Este 0 -- -- 93
2017-10-21 08:00:00 7 4 Nordeste 18 Norte 0 -- -- 90
2017-10-21 07:00:00 6.7 5 Nordeste 19 Norte 0 -- -- 89
2017-10-21 06:00:00 7.2 4 Nordeste 22 Noroeste 0 -- -- 92
2017-10-21 05:00:00 7.8 10 Norte 28 Norte 0.2 -- -- 92
2017-10-21 04:00:00 8.8 13 Norte 35 Norte 0.8 -- -- 94
2017-10-21 03:00:00 10 4 Sur 23 Noroeste 1.4 -- -- 95
2017-10-21 02:00:00 10.1 8 Norte 36 Norte 2.6 -- -- 93
2017-10-21 01:00:00 13.2 8 Sudoeste 28 Sur 0.2 -- -- 87
2017-10-21 00:00:00 14.3 10 Sudoeste 27 Oeste 0 -- -- 80
2017-10-20 23:00:00 14.1 13 Sudoeste 31 Sudoeste 0 -- -- 78
2017-10-20 22:00:00 14.4 12 Sudoeste 33 Sur 0 -- -- 80
2017-10-20 21:00:00 14.4 10 Sudoeste 29 Sur 0 -- -- 79
2017-10-20 20:00:00 15.2 6 Sur 29 Sur 0 -- -- 79
2017-10-20 19:00:00 15.6 9 Sudoeste 33 Sudoeste 0 -- -- 78
2017-10-20 18:00:00 16.5 11 Oeste 31 Noroeste 0 -- -- 74
2017-10-20 17:00:00 17.9 11 Sur 24 Sudeste 0 -- -- 69
2017-10-20 16:00:00 16.6 11 Sudeste 31 Sur 0 -- -- 74
2017-10-20 15:00:00 13.9 13 Sur 31 Sur 0 -- -- 80
2017-10-20 14:00:00 12.9 12 Sur 24 Sudeste 0 -- -- 78
2017-10-20 13:00:00 13.2 15 Sudoeste 28 Sur 0 -- -- 70
2017-10-20 12:00:00 13.6 10 Sur 17 Sur 0 -- -- 68
2017-10-20 11:00:00 12.4 4 Sur 27 Sur 0 -- -- 73
2017-10-20 10:00:00 11.7 9 Sur 23 Sur 0 -- -- 75
2017-10-20 09:00:00 9.4 6 Sudeste 19 Sudeste 0 -- -- 88
2017-10-20 08:00:00 10 6 Sur 21 Oeste 0 -- -- 87
2017-10-20 07:00:00 10.3 4 Sudoeste 16 Sudeste 0 -- -- 87
2017-10-20 06:00:00 10.6 6 Sudeste 15 Sudoeste 0 -- -- 88
2017-10-20 05:00:00 11 5 Sur 24 Oeste 0.2 -- -- 87
2017-10-20 04:00:00 10.8 4 Oeste 12 Noroeste 0 -- -- 89
2017-10-20 03:00:00 10.9 4 Sudeste 9 Este 0 -- -- 93
2017-10-20 02:00:00 11.1 3 Este 17 Sur 0 -- -- 95
2017-10-20 01:00:00 10.2 3 Nordeste 13 Sudeste 0 -- -- 96
2017-10-20 00:00:00 10.1 3 Sudoeste 9 Este 0.4 -- -- 96
2017-10-19 23:00:00 10 2 Sur 12 Sudeste 0.6 -- -- 95
2017-10-19 22:00:00 9.5 3 Sudoeste 12 Sudoeste 0.6 -- -- 95
2017-10-19 21:00:00 9.9 4 Sur 14 Sur 0.4 -- -- 93
2017-10-19 20:00:00 10 4 Sudoeste 13 Sudoeste 0.4 -- -- 93
2017-10-19 19:00:00 10.2 5 Sudoeste 19 Sudoeste 0.4 -- -- 89
2017-10-19 18:00:00 10.3 10 Oeste 25 Oeste 0 -- -- 87
2017-10-19 17:00:00 10.3 8 Sudoeste 27 Oeste 0.6 -- -- 89
2017-10-19 16:00:00 9.6 8 Sudoeste 15 Sudoeste 0 -- -- 92
2017-10-19 15:00:00 9.1 6 Sudoeste 18 Oeste 0.6 -- -- 92
2017-10-19 14:00:00 9.3 11 Sudoeste 23 Sudoeste 0 -- -- 87
2017-10-19 13:00:00 9.1 9 Sur 18 Sur 0 -- -- 85
2017-10-19 12:00:00 7.6 8 Sur 14 Sur 0 -- -- 88
2017-10-19 11:00:00 7.8 5 Sur 14 Sur 0 -- -- 82
2017-10-19 10:00:00 6.7 2 Sur 14 Oeste 0 -- -- 86
2017-10-19 09:00:00 6.1 5 Sur 10 Sur 0 -- -- 88
2017-10-19 08:00:00 5.7 0 Calma 10 Sur 0 -- -- 90
2017-10-19 07:00:00 6.2 7 Oeste 13 Oeste 0 -- -- 88
2017-10-19 06:00:00 5.2 3 Noroeste 17 Oeste 0 -- -- 92
2017-10-19 05:00:00 5.4 10 Oeste 17 Oeste 0 -- -- 93
2017-10-19 04:00:00 5.2 5 Noroeste 10 Noroeste 0 -- -- 92
2017-10-19 03:00:00 5.4 3 Norte 6 Noroeste 0 -- -- 93
2017-10-19 02:00:00 5.5 4 Norte 9 Noroeste 0 -- -- 94
2017-10-19 01:00:00 5.6 3 Noroeste 6 Norte 0 -- -- 95
2017-10-19 00:00:00 5.7 2 Norte 9 Norte 0 -- -- 94
2017-10-18 23:00:00 6.4 4 Norte 10 Noroeste 0 -- -- 93
2017-10-18 22:00:00 6.9 5 Noroeste 13 Norte 0 -- -- 93
2017-10-18 21:00:00 6.5 2 Nordeste 10 Nordeste 0 -- -- 92
2017-10-18 20:00:00 6.8 4 Norte 13 Norte 0 -- -- 89
2017-10-18 19:00:00 7 3 Noroeste 10 Norte 3.6 -- -- 89
2017-10-18 18:00:00 6.9 4 Norte 19 Noroeste 0.8 -- -- 92
2017-10-18 17:00:00 7.8 5 Noroeste 15 Este 1.4 -- -- 88
2017-10-18 16:00:00 8.7 7 Nordeste 14 Nordeste 0 -- -- 88
2017-10-18 15:00:00 9 4 Este 15 Oeste 0.2 -- -- 84
2017-10-18 14:00:00 9.6 4 Norte 15 Noroeste 0 -- -- 78
2017-10-18 13:00:00 8.8 5 Oeste 14 Noroeste 0 -- -- 80
2017-10-18 12:00:00 8.7 4 Sur 18 Sudeste 0 -- -- 81
2017-10-18 11:00:00 7.6 4 Sudoeste 13 Oeste 0 -- -- 83
2017-10-18 10:00:00 6.9 4 Nordeste 18 Oeste 0 -- -- 86
2017-10-18 09:00:00 6.7 8 Oeste 15 Sur 0 -- -- 89
2017-10-18 08:00:00 7.2 8 Sudoeste 13 Sur 0.4 -- -- 90
2017-10-18 07:00:00 7.3 2 Este 14 Sur 0.4 -- -- 90
2017-10-18 06:00:00 7.7 4 Sur 14 Sudoeste 1 -- -- 91
2017-10-18 05:00:00 7.8 10 Sur 23 Sudoeste 0 -- -- 89
2017-10-18 04:00:00 8.2 13 Sur 31 Sudoeste 0.4 -- -- 86
2017-10-18 03:00:00 8.3 12 Sur 28 Sudoeste 0.2 -- -- 87
2017-10-18 02:00:00 8.7 14 Sudoeste 23 Sur 0.6 -- -- 86
2017-10-18 01:00:00 8.7 10 Sur 19 Sur 0.8 -- -- 86
2017-10-18 00:00:00 9.5 9 Sur 29 Sur 0.2 -- -- 78
2017-10-17 23:00:00 10.7 12 Sur 29 Sur 0 -- -- 65
2017-10-17 22:00:00 10.2 7 Sudoeste 18 Sudoeste 0 -- -- 63
2017-10-17 21:00:00 10.4 9 Sudoeste 16 Sudoeste 0 -- -- 62
2017-10-17 20:00:00 11.2 6 Sur 16 Sur 0 -- -- 65
2017-10-17 19:00:00 -- -- -- -- -- -- -- -- --
2017-10-17 18:00:00 15 8 Sudoeste 26 Sudoeste 0 -- -- 57
2017-10-17 17:00:00 13.7 9 Oeste 24 Sudoeste 0 -- -- 64
2017-10-17 16:00:00 13.1 6 Sudoeste 26 Sur 0 -- -- 69
2017-10-17 15:00:00 12.6 13 Oeste 28 Sudoeste 0 -- -- 70
2017-10-17 14:00:00 10.9 7 Sudoeste 29 Noroeste 0 -- -- 76
2017-10-17 13:00:00 10.1 13 Oeste 24 Oeste 0 -- -- 90
2017-10-17 12:00:00 10.7 4 Sudoeste 23 Noroeste 0 -- -- 92
2017-10-17 11:00:00 10.7 8 Oeste 18 Oeste 0 -- -- 93
2017-10-17 10:00:00 11.6 5 Oeste 16 Sur 0.4 -- -- 91
2017-10-17 09:00:00 12 14 Sur 30 Sur 0.8 -- -- 89
2017-10-17 08:00:00 11.8 14 Sur 31 Noroeste 2.2 -- -- 89
2017-10-17 07:00:00 12.7 14 Sudoeste 39 Sudoeste 3.8 -- -- 82
2017-10-17 06:00:00 15 17 Sur 44 Sur 0 -- -- 66
2017-10-17 05:00:00 15.4 19 Sur 39 Sur 0 -- -- 59
2017-10-17 04:00:00 16 19 Sur 44 Sur 0 -- -- 53
2017-10-17 03:00:00 16.7 14 Sur 36 Sur 0 -- -- 48
2017-10-17 02:00:00 17 18 Sur 39 Sur 0 -- -- 46
2017-10-17 01:00:00 17.1 19 Sur 35 Sur 0 -- -- 44
2017-10-17 00:00:00 16.9 15 Sur 28 Sudeste 0 -- -- 45
2017-10-16 23:00:00 15.9 8 Sudoeste 18 Sur 0 -- -- 48
2017-10-16 22:00:00 16.3 10 Sudoeste 21 Sur 0 -- -- 47
2017-10-16 21:00:00 16.2 13 Sur 23 Sur 0 -- -- 49
2017-10-16 20:00:00 16 7 Sudoeste 17 Sur 0 -- -- 49
2017-10-16 19:00:00 15.7 3 Oeste 13 Oeste 0 -- -- 53
2017-10-16 18:00:00 16.5 6 Sur 15 Sur 0 -- -- 52
2017-10-16 17:00:00 16.2 4 Sur 15 Sur 0 -- -- 57
2017-10-16 16:00:00 16.9 6 Sur 15 Sur 0 -- -- 56
2017-10-16 15:00:00 16.8 5 Sur 14 Sur 0 -- -- 59
2017-10-16 14:00:00 16.6 3 Sudoeste 32 Sur 0 -- -- 65
2017-10-16 13:00:00 16.6 6 Oeste 22 Sudoeste 0 -- -- 67
2017-10-16 12:00:00 16.8 7 Sudoeste 18 Sur 0 -- -- 67
2017-10-16 11:00:00 16.7 6 Sudoeste 32 Sur 0 -- -- 66
2017-10-16 10:00:00 16.8 11 Sur 28 Sur 0 -- -- 63
2017-10-16 09:00:00 16.8 10 Sur 22 Sur 0 -- -- 62
2017-10-16 08:00:00 17.1 3 Sur 29 Sudoeste 0 -- -- 59
2017-10-16 07:00:00 17.6 9 Sur 30 Sur 0 -- -- 52
2017-10-16 06:00:00 17.6 9 Oeste 31 Sudoeste 0 -- -- 48
2017-10-16 05:00:00 18.8 13 Sudoeste 34 Oeste 0 -- -- 40
2017-10-16 04:00:00 20.1 10 Sudoeste 36 Sur 0 -- -- 35
2017-10-16 03:00:00 21 13 Sudoeste 43 Sur 0 -- -- 32
2017-10-16 02:00:00 21.9 15 Sur 41 Sur 0 -- -- 30
2017-10-16 01:00:00 21.6 13 Sudoeste 37 Sur 0 -- -- 32
2017-10-16 00:00:00 21.5 21 Sur 46 Sur 0 -- -- 33
2017-10-15 23:00:00 21.4 21 Sur 39 Sur 0 -- -- 34
2017-10-15 22:00:00 20.8 18 Sur 43 Sur 0 -- -- 37
2017-10-15 21:00:00 20.9 19 Sur 39 Sur 0 -- -- 37
2017-10-15 20:00:00 21.6 15 Sur 33 Sur 0 -- -- 34
2017-10-15 19:00:00 22.4 10 Sudoeste 34 Sur 0 -- -- 33
2017-10-15 18:00:00 24.6 19 Sur 33 Sur 0 -- -- 29
2017-10-15 17:00:00 24.8 19 Sudoeste 40 Sur 0 -- -- 28
2017-10-15 16:00:00 25 15 Sudoeste 44 Sudeste 0 -- -- 28
2017-10-15 15:00:00 24.6 15 Sudoeste 35 Sur 0 -- -- 29
2017-10-15 14:00:00 25.5 20 Sur 36 Sur 0 -- -- 28
2017-10-15 13:00:00 23.8 22 Sur 41 Sur 0 -- -- 29
2017-10-15 12:00:00 23.2 18 Sur 32 Sur 0 -- -- 30
2017-10-15 11:00:00 20.6 15 Sur 38 Sur 0 -- -- 33
2017-10-15 10:00:00 20 15 Sudoeste 31 Sudoeste 0 -- -- 34
2017-10-15 09:00:00 19.4 13 Sur 30 Sudeste 0 -- -- 35
2017-10-15 08:00:00 19.7 13 Sudoeste 34 Sudoeste 0 -- -- 34
2017-10-15 07:00:00 19.6 12 Sudoeste 27 Sudoeste 0 -- -- 34
2017-10-15 06:00:00 19.6 10 Sudoeste 29 Sudoeste 0 -- -- 34
2017-10-15 05:00:00 19.8 11 Sudoeste 24 Oeste 0 -- -- 33
2017-10-15 04:00:00 20 10 Sudoeste 30 Oeste 0 -- -- 32
2017-10-15 03:00:00 19.8 14 Sudoeste 25 Sudoeste 0 -- -- 33
2017-10-15 02:00:00 19.2 9 Sudoeste 21 Sur 0 -- -- 35
2017-10-15 01:00:00 19.6 12 Sudoeste 22 Sur 0 -- -- 33
2017-10-15 00:00:00 20.2 4 Sudoeste 16 Sudoeste 0 -- -- 33
2017-10-14 23:00:00 20.2 6 Sudoeste 18 Sur 0 -- -- 33
2017-10-14 22:00:00 20.5 11 Sudoeste 22 Sudoeste 0 -- -- 34
2017-10-14 21:00:00 19.6 3 Oeste 9 Sur 0 -- -- 37
2017-10-14 20:00:00 21.2 3 Noroeste 12 Sudoeste 0 -- -- 34
2017-10-14 19:00:00 23.5 5 Oeste 20 Sudoeste 0 -- -- 28
2017-10-14 18:00:00 25.8 7 Sudoeste 19 Sudoeste 0 -- -- 25
2017-10-14 17:00:00 26.3 10 Sudoeste 21 Sudoeste 0 -- -- 23
2017-10-14 16:00:00 26.1 7 Sudoeste 28 Sur 0 -- -- 23
2017-10-14 15:00:00 25.4 11 Sur 26 Sur 0 -- -- 28
2017-10-14 14:00:00 24.2 14 Sur 30 Sur 0 -- -- 29
2017-10-14 13:00:00 22.9 15 Sur 28 Sur 0 -- -- 32
2017-10-14 12:00:00 21.5 13 Sur 22 Sur 0 -- -- 34
2017-10-14 11:00:00 21.4 5 Sur 14 Sur 0 -- -- 33
2017-10-14 10:00:00 18.3 5 Oeste 21 Noroeste 0 -- -- 36
2017-10-14 09:00:00 16.4 6 Sudoeste 32 Sudoeste 0 -- -- 41
2017-10-14 08:00:00 16.9 16 Sur 33 Sudoeste 0 -- -- 39
2017-10-14 07:00:00 16 12 Sudoeste 24 Sudoeste 0 -- -- 43
2017-10-14 06:00:00 15.6 3 Noroeste 12 Sudeste 0 -- -- 43
2017-10-14 05:00:00 15.4 2 Este 9 Sudoeste 0 -- -- 44
2017-10-14 04:00:00 16.5 4 Sudoeste 12 Sudoeste 0 -- -- 40
2017-10-14 03:00:00 16.9 6 Sur 13 Sur 0 -- -- 39
2017-10-14 02:00:00 16.3 4 Sur 9 Sur 0 -- -- 42
2017-10-14 01:00:00 14.7 2 Noroeste 4 Noroeste 0 -- -- 56
2017-10-14 00:00:00 14.4 0 Calma 3 Norte 0 -- -- 57
2017-10-13 23:00:00 14.6 0 Calma 7 Noroeste 0 -- -- 57
2017-10-13 22:00:00 15.1 0 Calma 9 Norte 0 -- -- 55
2017-10-13 21:00:00 15.7 4 Norte 14 Noroeste 0 -- -- 52
2017-10-13 20:00:00 17 8 Norte 13 Norte 0 -- -- 47
2017-10-13 19:00:00 19.9 6 Norte 16 Norte 0 -- -- 30
2017-10-13 18:00:00 23.6 6 Norte 14 Norte 0 -- -- 26
2017-10-13 17:00:00 24.8 5 Nordeste 15 Nordeste 0 -- -- 28
2017-10-13 16:00:00 24.3 5 Este 14 Norte 0 -- -- 31
2017-10-13 15:00:00 23.8 5 Norte 13 Sur 0 -- -- 28
2017-10-13 14:00:00 24.6 9 Sur 21 Sur 0 -- -- 24
2017-10-13 13:00:00 23.6 12 Sur 21 Sur 0 -- -- 24
2017-10-13 12:00:00 23 10 Sur 17 Sur 0 -- -- 25
2017-10-13 11:00:00 22.2 5 Sur 11 Sur 0 -- -- 29
2017-10-13 10:00:00 18.6 2 Oeste 7 Noroeste 0 -- -- 34
2017-10-13 09:00:00 15.3 2 Norte 6 Noroeste 0 -- -- 41
2017-10-13 08:00:00 15.8 0 Calma 4 Sudeste 0 -- -- 40
2017-10-13 07:00:00 15.2 0 Calma 5 Noroeste 0 -- -- 41
2017-10-13 06:00:00 15.6 0 Calma 5 Norte 0 -- -- 44
2017-10-13 05:00:00 16.4 3 Norte 6 Noroeste 0 -- -- 38
2017-10-13 04:00:00 16.4 0 Calma 6 Norte 0 -- -- 40
2017-10-13 03:00:00 16.6 3 Norte 6 Noroeste 0 -- -- 37
2017-10-13 02:00:00 16 2 Norte 6 Noroeste 0 -- -- 40
2017-10-13 01:00:00 15.9 2 Noroeste 6 Noroeste 0 -- -- 45
2017-10-13 00:00:00 16.5 2 Nordeste 6 Norte 0 -- -- 43
2017-10-12 23:00:00 17.2 3 Nordeste 9 Norte 0 -- -- 42
2017-10-12 22:00:00 17.8 5 Norte 11 Norte 0 -- -- 38
2017-10-12 21:00:00 19.7 5 Noroeste 12 Norte 0 -- -- 31
2017-10-12 20:00:00 19.6 6 Noroeste 14 Norte 0 -- -- 31
2017-10-12 19:00:00 21.5 8 Norte 13 Norte 0 -- -- 27
2017-10-12 18:00:00 25.2 6 Sudoeste 18 Sur 0 -- -- 21
2017-10-12 17:00:00 25.7 8 Sudoeste 17 Sur 0 -- -- 20
2017-10-12 16:00:00 25.5 6 Sudoeste 22 Sudoeste 0 -- -- 21
2017-10-12 15:00:00 24.6 8 Oeste 24 Sur 0 -- -- 22
2017-10-12 14:00:00 23.4 11 Sur 24 Sur 0 -- -- 22
2017-10-12 13:00:00 21.5 16 Sur 28 Sur 0 -- -- 26
2017-10-12 12:00:00 21 14 Sur 26 Sur 0 -- -- 26
2017-10-12 11:00:00 19.7 14 Sudoeste 24 Sudoeste 0 -- -- 28
2017-10-12 10:00:00 16.8 7 Oeste 16 Oeste 0 -- -- 35
2017-10-12 09:00:00 12.8 6 Noroeste 15 Oeste 0 -- -- 46
2017-10-12 08:00:00 13.2 6 Noroeste 12 Oeste 0 -- -- 47
2017-10-12 07:00:00 13.7 6 Oeste 15 Oeste 0 -- -- 48
2017-10-12 06:00:00 13.8 4 Noroeste 13 Oeste 0 -- -- 45
2017-10-12 05:00:00 13.6 5 Oeste 14 Sudoeste 0 -- -- 45
2017-10-12 04:00:00 14.6 5 Oeste 13 Noroeste 0 -- -- 41
2017-10-12 03:00:00 13.9 4 Noroeste 7 Oeste 0 -- -- 45
2017-10-12 02:00:00 13.7 4 Noroeste 8 Noroeste 0 -- -- 45
2017-10-12 01:00:00 14.1 4 Noroeste 11 Oeste 0 -- -- 45
2017-10-12 00:00:00 13.2 3 Noroeste 5 Noroeste 0 -- -- 57
2017-10-11 23:00:00 12.8 2 Norte 5 Norte 0 -- -- 64
2017-10-11 22:00:00 13.9 4 Norte 6 Norte 0 -- -- 61
2017-10-11 21:00:00 14.9 2 Norte 9 Norte 0 -- -- 57
2017-10-11 20:00:00 17.3 4 Norte 15 Norte 0 -- -- 43
2017-10-11 19:00:00 19.2 8 Sur 25 Oeste 0 -- -- 34
2017-10-11 18:00:00 21.4 8 Oeste 36 Sudoeste 0 -- -- 31
2017-10-11 17:00:00 21.2 11 Sudoeste 33 Oeste 0 -- -- 26
2017-10-11 16:00:00 21.1 10 Sudoeste 33 Sur 0 -- -- 16
2017-10-11 15:00:00 22.7 8 Sur 25 Oeste 0 -- -- 15
2017-10-11 14:00:00 23 10 Sudoeste 27 Sudoeste 0 -- -- 16
2017-10-11 13:00:00 23.6 9 Sur 25 Sur 0 -- -- 15
2017-10-11 12:00:00 22.2 10 Sur 23 Sur 0 -- -- 18
2017-10-11 11:00:00 20.7 5 Sur 8 Sur 0 -- -- 25
2017-10-11 10:00:00 17.6 3 Noroeste 13 Oeste 0 -- -- 24
2017-10-11 09:00:00 14 8 Oeste 14 Oeste 0 -- -- 26
2017-10-11 08:00:00 14.9 5 Oeste 12 Oeste 0 -- -- 23
2017-10-11 07:00:00 15.1 6 Oeste 13 Sudoeste 0 -- -- 23
2017-10-11 06:00:00 15.1 6 Oeste 12 Oeste 0 -- -- 23
2017-10-11 05:00:00 15.2 6 Noroeste 13 Noroeste 0 -- -- 24
2017-10-11 04:00:00 15.3 8 Noroeste 11 Noroeste 0 -- -- 24
2017-10-11 03:00:00 15.7 5 Noroeste 11 Noroeste 0 -- -- 23
2017-10-11 02:00:00 16.3 3 Noroeste 8 Norte 0 -- -- 26
2017-10-11 01:00:00 16.6 5 Norte 9 Norte 0 -- -- 27
2017-10-11 00:00:00 16.3 0 Calma 6 Norte 0 -- -- 24
2017-10-10 23:00:00 16.8 3 Norte 11 Noroeste 0 -- -- 23
2017-10-10 22:00:00 17.3 4 Norte 6 Norte 0 -- -- 22
2017-10-10 21:00:00 17.7 3 Norte 9 Noroeste 0 -- -- 21
2017-10-10 20:00:00 19.2 6 Norte 13 Noroeste 0 -- -- 20
2017-10-10 19:00:00 20.2 6 Norte 13 Nordeste 0 -- -- 18
2017-10-10 18:00:00 24.2 5 Norte 15 Nordeste 0 -- -- 15
2017-10-10 17:00:00 25.3 6 Nordeste 14 Nordeste 0 -- -- 16
2017-10-10 16:00:00 24.9 4 Nordeste 13 Este 0 -- -- 15
2017-10-10 15:00:00 24.5 5 Este 13 Sudeste 0 -- -- 12
2017-10-10 14:00:00 24.6 5 Este 14 Sur 0 -- -- 12
2017-10-10 13:00:00 23.9 7 Sur 12 Sur 0 -- -- 21
2017-10-10 12:00:00 22.7 5 Sur 10 Sur 0 -- -- 27
2017-10-10 11:00:00 21.9 3 Sur 5 Sur 0 -- -- 32
2017-10-10 10:00:00 16.3 0 Calma 4 Este 0 -- -- 37
2017-10-10 09:00:00 13.3 3 Sudeste 4 Sudeste 0 -- -- 34
2017-10-10 08:00:00 13.1 0 Calma 4 Este 0 -- -- 33
2017-10-10 07:00:00 13 0 Calma 4 Sudeste 0 -- -- 35
2017-10-10 06:00:00 13.6 2 Este 4 Este 0 -- -- 36
2017-10-10 05:00:00 13.8 2 Este 5 Noroeste 0 -- -- 36
2017-10-10 04:00:00 14.1 0 Calma 4 Noroeste 0 -- -- 37
2017-10-10 03:00:00 13.9 0 Calma 5 Noroeste 0 -- -- 39
2017-10-10 02:00:00 13.8 0 Calma 5 Este 0 -- -- 58
2017-10-10 01:00:00 13.3 2 Noroeste 4 Noroeste 0 -- -- 55
2017-10-10 00:00:00 14.1 0 Calma 5 Noroeste 0 -- -- 49
2017-10-09 23:00:00 14.9 2 Norte 5 Noroeste 0 -- -- 48
2017-10-09 22:00:00 15.1 0 Calma 12 Norte 0 -- -- 56
2017-10-09 21:00:00 16 9 Noroeste 13 Norte 0 -- -- 50
2017-10-09 20:00:00 17.4 9 Norte 13 Norte 0 -- -- 48
2017-10-09 19:00:00 19.3 6 Norte 12 Norte 0 -- -- 37
2017-10-09 18:00:00 24.1 5 Norte 12 Nordeste 0 -- -- 22
2017-10-09 17:00:00 24.7 5 Nordeste 17 Nordeste 0 -- -- 21
2017-10-09 16:00:00 23.8 6 Nordeste 15 Norte 0 -- -- 23
2017-10-09 15:00:00 23.6 5 Sur 12 Sudoeste 0 -- -- 26
2017-10-09 14:00:00 23.7 4 Sur 10 Sur 0 -- -- 21
2017-10-09 13:00:00 21.3 4 Sudoeste 10 Sur 0 -- -- 23
2017-10-09 12:00:00 19.1 4 Sudoeste 13 Sudoeste 0 -- -- 26
2017-10-09 11:00:00 16.9 2 Oeste 6 Oeste 0 -- -- 28
2017-10-09 10:00:00 15.6 2 Noroeste 6 Nordeste 0 -- -- 31
2017-10-09 09:00:00 13 3 Nordeste 6 Nordeste 0 -- -- 34
2017-10-09 08:00:00 13.8 2 Norte 9 Norte 0 -- -- 31
2017-10-09 07:00:00 12.5 3 Sudeste 5 Sudeste 0 -- -- 35
2017-10-09 06:00:00 12.9 3 Este 6 Este 0 -- -- 35
2017-10-09 05:00:00 13.5 2 Este 6 Este 0 -- -- 36
2017-10-09 04:00:00 16.3 0 Calma 10 Sur 0 -- -- 30
2017-10-09 03:00:00 15.5 3 Noroeste 9 Noroeste 0 -- -- 33
2017-10-09 02:00:00 14.6 0 Calma 6 Noroeste 0 -- -- 45
2017-10-09 01:00:00 13.8 0 Calma 2 Sudeste 0 -- -- 59
2017-10-09 00:00:00 13.8 0 Calma 2 Noroeste 0 -- -- 52
2017-10-08 23:00:00 14.2 0 Calma 4 Norte 0 -- -- 53
2017-10-08 22:00:00 15.7 0 Calma 14 Norte 0 -- -- 41
2017-10-08 21:00:00 16.7 9 Norte 14 Noroeste 0 -- -- 42
2017-10-08 20:00:00 18.4 9 Norte 15 Norte 0 -- -- 42
2017-10-08 19:00:00 20.7 8 Norte 16 Nordeste 0 -- -- 36
2017-10-08 18:00:00 25.8 5 Norte 12 Nordeste 0 -- -- 21
2017-10-08 17:00:00 25.7 6 Norte 13 Nordeste 0 -- -- 19
2017-10-08 16:00:00 25.1 6 Nordeste 15 Este 0 -- -- 26
2017-10-08 15:00:00 24.6 5 Nordeste 16 Nordeste 0 -- -- 29
2017-10-08 14:00:00 23.8 6 Norte 14 Norte 0 -- -- 30
2017-10-08 13:00:00 23.9 4 Sudeste 12 Sur 0 -- -- 25
2017-10-08 12:00:00 23.3 6 Sur 10 Sur 0 -- -- 28
2017-10-08 11:00:00 22.1 3 Sur 5 Sur 0 -- -- 29
2017-10-08 10:00:00 17.6 0 Calma 4 Nordeste 0 -- -- 41
2017-10-08 09:00:00 15 0 Calma 6 Norte 0 -- -- 35
2017-10-08 08:00:00 15.4 3 Norte 5 Norte 0 -- -- 31
2017-10-08 07:00:00 15.2 4 Noroeste 5 Este 0 -- -- 32
2017-10-08 06:00:00 15 3 Sudeste 6 Sudeste 0 -- -- 33
2017-10-08 05:00:00 15 3 Sudeste 6 Sudeste 0 -- -- 35
2017-10-08 04:00:00 15.3 2 Sudeste 4 Sudeste 0 -- -- 41
2017-10-08 03:00:00 15.8 2 Norte 5 Noroeste 0 -- -- 40
2017-10-08 02:00:00 14.6 2 Noroeste 4 Noroeste 0 -- -- 49
2017-10-08 01:00:00 14.9 0 Calma 4 Norte 0 -- -- 48
2017-10-08 00:00:00 14.8 2 Noroeste 5 Sur 0 -- -- 48
2017-10-07 23:00:00 15.3 2 Noroeste 4 Noroeste 0 -- -- 45
2017-10-07 22:00:00 16.8 0 Calma 9 Norte 0 -- -- 39
2017-10-07 21:00:00 18.2 3 Norte 11 Noroeste 0 -- -- 34
2017-10-07 20:00:00 20 7 Norte 12 Norte 0 -- -- 30
2017-10-07 19:00:00 21.6 8 Norte 12 Norte 0 -- -- 25
2017-10-07 18:00:00 25.9 6 Norte 14 Noroeste 0 -- -- 20
2017-10-07 17:00:00 26.5 5 Nordeste 15 Nordeste 0 -- -- 23
2017-10-07 16:00:00 25.8 5 Sudoeste 15 Este 0 -- -- 26
2017-10-07 15:00:00 24.5 4 Este 10 Sudeste 0 -- -- 28
2017-10-07 14:00:00 25.9 6 Sur 17 Sur 0 -- -- 19
2017-10-07 13:00:00 24.7 10 Sur 17 Sur 0 -- -- 19
2017-10-07 12:00:00 22.9 6 Sur 10 Sur 0 -- -- 31
2017-10-07 11:00:00 21.2 3 Sudeste 7 Este 0 -- -- 35
2017-10-07 10:00:00 16.4 3 Sudeste 7 Este 0 -- -- 42
2017-10-07 09:00:00 14.7 2 Sudeste 7 Sur 0 -- -- 38
2017-10-07 08:00:00 13.5 0 Calma 6 Sudeste 0 -- -- 43
2017-10-07 07:00:00 13.8 3 Sudeste 7 Norte 0 -- -- 42
2017-10-07 06:00:00 14.3 4 Noroeste 10 Noroeste 0 -- -- 41
2017-10-07 05:00:00 13.8 0 Calma 5 Oeste 0 -- -- 45
2017-10-07 04:00:00 12.7 0 Calma 5 Sudeste 0 -- -- 67
2017-10-07 03:00:00 11.6 0 Calma 3 Noroeste 0 -- -- 77
2017-10-07 02:00:00 11.9 0 Calma 4 Este 0 -- -- 78
2017-10-07 01:00:00 12.5 0 Calma 4 Norte 0 -- -- 78
2017-10-07 00:00:00 12.7 0 Calma 5 Sudeste 0 -- -- 79
2017-10-06 23:00:00 13.5 0 Calma 4 Noroeste 0 -- -- 74
2017-10-06 22:00:00 14.8 0 Calma 5 Nordeste 0 -- -- 68
2017-10-06 21:00:00 15.8 2 Norte 9 Noroeste 0 -- -- 61
2017-10-06 20:00:00 17.4 0 Calma 14 Norte 0 -- -- 54
2017-10-06 19:00:00 18.9 8 Norte 18 Norte 0 -- -- 50
2017-10-06 18:00:00 24 6 Norte 14 Norte 0 -- -- 36
2017-10-06 17:00:00 24.8 5 Norte 13 Norte 0 -- -- 38
2017-10-06 16:00:00 23.8 6 Norte 14 Noroeste 0 -- -- 39
2017-10-06 15:00:00 23 7 Sur 15 Sur 0 -- -- 42
2017-10-06 14:00:00 22.1 5 Sur 10 Sur 0 -- -- 50
2017-10-06 13:00:00 20.1 5 Sur 10 Sur 0 -- -- 60
2017-10-06 12:00:00 21.2 3 Sur 5 Sur 0 -- -- 48
2017-10-06 11:00:00 17.9 2 Sur 5 Sudeste 0 -- -- 66
2017-10-06 10:00:00 12.7 2 Sudeste 3 Sudeste 0 -- -- 87
2017-10-06 09:00:00 8.3 0 Calma 4 Noroeste 0 -- -- 97
2017-10-06 08:00:00 7.8 0 Calma 3 Norte 0 -- -- 98
2017-10-06 07:00:00 8.3 0 Calma 3 Este 0 -- -- 97
2017-10-06 06:00:00 9.5 0 Calma 4 Norte 0 -- -- 98
2017-10-06 05:00:00 10 0 Calma 2 Nordeste 0 -- -- 98
2017-10-06 04:00:00 10.4 0 Calma 5 Noroeste 0 -- -- 97
2017-10-06 03:00:00 11.2 3 Noroeste 5 Noroeste 0 -- -- 97
2017-10-06 02:00:00 11.5 2 Norte 5 Noroeste 0 -- -- 97
2017-10-06 01:00:00 12.1 2 Norte 4 Noroeste 0 -- -- 97
2017-10-06 00:00:00 13.1 0 Calma 5 Noroeste 0 -- -- 95
2017-10-05 23:00:00 13.3 0 Calma 4 Noroeste 0 -- -- 94
2017-10-05 22:00:00 14.3 0 Calma 5 Sur 0 -- -- 88
2017-10-05 21:00:00 16.5 2 Sudeste 10 Noroeste 0 -- -- 78
2017-10-05 20:00:00 18.6 9 Norte 15 Norte 0 -- -- 67
2017-10-05 19:00:00 20 9 Norte 20 Norte 0 -- -- 65
2017-10-05 18:00:00 25.2 6 Norte 15 Norte 0 -- -- 41
2017-10-05 17:00:00 26.4 4 Norte 16 Nordeste 0 -- -- 30
2017-10-05 16:00:00 25.3 7 Nordeste 18 Nordeste 0 -- -- 39
2017-10-05 15:00:00 24.5 5 Este 16 Nordeste 0 -- -- 43
2017-10-05 14:00:00 21.9 6 Sur 12 Sur 0 -- -- 61
2017-10-05 13:00:00 21.7 5 Sur 8 Sur 0 -- -- 60
2017-10-05 12:00:00 24.5 5 Sur 13 Sur 0 -- -- 42
2017-10-05 11:00:00 23.2 4 Sur 8 Sur 0 -- -- 44
2017-10-05 10:00:00 19.2 2 Sudeste 5 Sudeste 0 -- -- 52
2017-10-05 09:00:00 15.8 3 Sudeste 8 Este 0 -- -- 59
2017-10-05 08:00:00 17.2 2 Este 6 Norte 0 -- -- 53
2017-10-05 07:00:00 15.3 2 Sudeste 7 Sudeste 0 -- -- 62
2017-10-05 06:00:00 17.8 2 Norte 16 Sudoeste 0 -- -- 52
2017-10-05 05:00:00 17.9 0 Calma 6 Sudeste 0 -- -- 52
2017-10-05 04:00:00 17.9 3 Norte 8 Noroeste 0 -- -- 53
2017-10-05 03:00:00 18.2 3 Norte 6 Norte 0 -- -- 55
2017-10-05 02:00:00 18.5 3 Norte 5 Norte 0 -- -- 57
2017-10-05 01:00:00 17.9 2 Norte 5 Norte 0 -- -- 70
2017-10-05 00:00:00 17.4 0 Calma 5 Noroeste 0 -- -- 76
2017-10-04 23:00:00 17.7 3 Norte 5 Noroeste 0 -- -- 75
2017-10-04 22:00:00 18 0 Calma 8 Norte 0 -- -- 75
2017-10-04 21:00:00 18.7 3 Norte 7 Norte 0 -- -- 69
2017-10-04 20:00:00 19.7 2 Este 12 Norte 0 -- -- 67
2017-10-04 19:00:00 21.5 6 Norte 13 Norte 0 -- -- 56
2017-10-04 18:00:00 26.5 5 Norte 15 Nordeste 0 -- -- 44
2017-10-04 17:00:00 26.9 6 Norte 11 Norte 0 -- -- 41
2017-10-04 16:00:00 28.1 9 Sur 23 Sur 0 -- -- 31
2017-10-04 15:00:00 26.5 10 Sur 27 Sur 0 -- -- 32
2017-10-04 14:00:00 26.1 13 Sur 28 Sur 0 -- -- 33
2017-10-04 13:00:00 24.6 13 Sur 26 Sur 0 -- -- 37
2017-10-04 12:00:00 23.4 5 Sur 10 Sudeste 0 -- -- 41
2017-10-04 11:00:00 21.4 5 Sur 13 Este 0 -- -- 44
2017-10-04 10:00:00 15.2 3 Sur 9 Sudoeste 0 -- -- 72
2017-10-04 09:00:00 13.7 4 Este 14 Sudeste 0 -- -- 65
2017-10-04 08:00:00 15.5 5 Este 14 Noroeste 0 -- -- 56
2017-10-04 07:00:00 15.4 5 Sudeste 33 Sur 0 -- -- 59
2017-10-04 06:00:00 16.7 17 Sur 36 Sudeste 0 -- -- 55
2017-10-04 05:00:00 17.3 18 Sur 42 Sudeste 0 -- -- 57
2017-10-04 04:00:00 16.9 16 Sur 43 Sur 0 -- -- 62
2017-10-04 03:00:00 17.1 11 Sudoeste 33 Sur 0 -- -- 63
2017-10-04 02:00:00 16.7 17 Sur 37 Sur 0 -- -- 65
2017-10-04 01:00:00 14.6 2 Noroeste 6 Noroeste 0 -- -- 90
2017-10-04 00:00:00 12.5 0 Calma 4 Sur 0 -- -- 96
2017-10-03 23:00:00 13.8 0 Calma 4 Noroeste 0 -- -- 94
2017-10-03 22:00:00 14.4 0 Calma 8 Norte 0 -- -- 89
2017-10-03 21:00:00 15.7 0 Calma 16 Norte 0 -- -- 86
2017-10-03 20:00:00 18.2 10 Norte 18 Norte 0 -- -- 72
2017-10-03 19:00:00 19.9 6 Norte 17 Noroeste 0 -- -- 61
2017-10-03 18:00:00 23.8 8 Norte 21 Noroeste 0 -- -- 49
2017-10-03 17:00:00 25.2 6 Norte 15 Norte 0 -- -- 37
2017-10-03 16:00:00 26.4 4 Norte 12 Sur 0 -- -- 34
2017-10-03 15:00:00 25.1 6 Nordeste 15 Este 0 -- -- 33
2017-10-03 14:00:00 23.8 5 Sudoeste 13 Sur 0 -- -- 47
2017-10-03 13:00:00 22.5 5 Sur 9 Sur 0 -- -- 58
2017-10-03 12:00:00 20.2 4 Sur 8 Sudoeste 0 -- -- 64
2017-10-03 11:00:00 17.2 4 Sur 8 Sur 0 -- -- 72
2017-10-03 10:00:00 14.3 2 Sur 6 Sur 0 -- -- 79
2017-10-03 09:00:00 14.8 0 Calma 5 Norte 0 -- -- 75
2017-10-03 08:00:00 14.7 2 Norte 5 Noroeste 0 -- -- 68
2017-10-03 07:00:00 14.7 0 Calma 5 Norte 0 -- -- 65
2017-10-03 06:00:00 14.7 0 Calma 5 Norte 0 -- -- 69
2017-10-03 05:00:00 15.8 0 Calma 5 Norte 0 -- -- 71
2017-10-03 04:00:00 16 0 Calma 5 Norte 0 -- -- 72
2017-10-03 03:00:00 16.3 3 Norte 5 Norte 0 -- -- 73
2017-10-03 02:00:00 15.9 2 Norte 5 Noroeste 0 -- -- 79
2017-10-03 01:00:00 15.8 0 Calma 5 Norte 0 -- -- 88
2017-10-03 00:00:00 16.9 4 Norte 10 Norte 0 -- -- 81
2017-10-02 23:00:00 17.4 8 Norte 12 Noroeste 0 -- -- 78
2017-10-02 22:00:00 17.7 6 Norte 11 Norte 0 -- -- 76
2017-10-02 21:00:00 18.6 6 Norte 13 Nordeste 0 -- -- 75
2017-10-02 20:00:00 20.6 7 Norte 18 Norte 0 -- -- 67
2017-10-02 19:00:00 22.3 8 Norte 18 Norte 0 -- -- 59
2017-10-02 18:00:00 26.3 6 Norte 18 Noroeste 0 -- -- 46
2017-10-02 17:00:00 26.4 8 Norte 19 Norte 0 -- -- 46
2017-10-02 16:00:00 27.3 5 Norte 13 Nordeste 0 -- -- 44
2017-10-02 15:00:00 26.3 5 Sur 16 Sudoeste 0 -- -- 51
2017-10-02 14:00:00 25.2 5 Este 12 Este 0 -- -- 58
2017-10-02 13:00:00 23.9 4 Sudeste 14 Sur 0 -- -- 59
2017-10-02 12:00:00 23.5 3 Sur 9 Sur 0 -- -- 60
2017-10-02 11:00:00 20.9 4 Sur 7 Sur 0 -- -- 68
2017-10-02 10:00:00 17.6 3 Sur 5 Sur 0 -- -- 77
2017-10-02 09:00:00 14.3 0 Calma 4 Nordeste 0 -- -- 94
2017-10-02 08:00:00 14.1 0 Calma 4 Nordeste 0 -- -- 92
2017-10-02 07:00:00 14.2 0 Calma 4 Norte 0 -- -- 91
2017-10-02 06:00:00 14.7 2 Nordeste 5 Noroeste 0 -- -- 88
2017-10-02 05:00:00 15.3 0 Calma 4 Sudeste 0 -- -- 86
2017-10-02 04:00:00 15.6 0 Calma 9 Noroeste 0 -- -- 83
2017-10-02 03:00:00 15.1 0 Calma 7 Noroeste 0 -- -- 85
2017-10-02 02:00:00 16.1 4 Norte 7 Norte 0 -- -- 80
2017-10-02 01:00:00 16.3 4 Noroeste 10 Noroeste 0 -- -- 74
2017-10-02 00:00:00 14.9 8 Noroeste 12 Norte 0 -- -- 83
2017-10-01 23:00:00 15.4 6 Norte 10 Noroeste 0 -- -- 83
2017-10-01 22:00:00 15.9 5 Norte 14 Norte 0 -- -- 81
2017-10-01 21:00:00 15.9 7 Norte 13 Norte 0 -- -- 83
2017-10-01 20:00:00 16.7 6 Norte 10 Norte 0 -- -- 78
2017-10-01 19:00:00 17.9 4 Norte 14 Noroeste 0 -- -- 71
2017-10-01 18:00:00 21.5 6 Norte 16 Norte 0 -- -- 56
2017-10-01 17:00:00 21.7 5 Nordeste 14 Nordeste 0 -- -- 56
2017-10-01 16:00:00 21.5 6 Nordeste 14 Nordeste 0 -- -- 55
2017-10-01 15:00:00 19.8 6 Norte 13 Nordeste 0 -- -- 63
2017-10-01 14:00:00 17.1 4 Norte 16 Norte 0 -- -- 75
2017-10-01 13:00:00 16.1 4 Norte 12 Nordeste 0 -- -- 78
2017-10-01 12:00:00 15.1 3 Este 9 Sur 0 -- -- 86
2017-10-01 11:00:00 13.2 0 Calma 5 Noroeste 0 -- -- 96
2017-10-01 10:00:00 12 2 Noroeste 4 Nordeste 0 -- -- 97
2017-10-01 09:00:00 11.4 0 Calma 5 Noroeste 0 -- -- 97
2017-10-01 08:00:00 11.1 0 Calma 4 Sur 0.2 -- -- 97
2017-10-01 07:00:00 10.9 0 Calma 11 Norte 0 -- -- 97
2017-10-01 06:00:00 10.6 4 Norte 9 Norte 0 -- -- 97
2017-10-01 05:00:00 10.8 5 Norte 10 Norte 0 -- -- 96
2017-10-01 04:00:00 10.9 2 Norte 6 Norte 0 -- -- 96
2017-10-01 03:00:00 10.7 0 Calma 3 Noroeste 0 -- -- 95
2017-10-01 02:00:00 11.5 0 Calma 6 Norte 0 -- -- 94
2017-10-01 01:00:00 11.5 2 Norte 8 Noroeste 0 -- -- 94
2017-10-01 00:00:00 11.5 0 Calma 7 Norte 0 -- -- 94
2017-09-30 23:00:00 11.6 4 Norte 7 Norte 0 -- -- 93
2017-09-30 22:00:00 12.3 2 Noroeste 10 Noroeste 0 -- -- 85
2017-09-30 21:00:00 13.1 4 Norte 11 Norte 0 -- -- 75
2017-09-30 20:00:00 13.6 5 Norte 13 Norte 0 -- -- 71
2017-09-30 19:00:00 14.6 6 Norte 23 Norte 0 -- -- 64
2017-09-30 18:00:00 16.8 5 Nordeste 21 Nordeste 0 -- -- 58
2017-09-30 17:00:00 16.7 6 Nordeste 17 Nordeste 0 -- -- 56
2017-09-30 16:00:00 16.2 8 Norte 16 Nordeste 0 -- -- 59
2017-09-30 15:00:00 15.9 7 Norte 16 Noroeste 0 -- -- 67
2017-09-30 14:00:00 15.6 8 Norte 14 Noroeste 0 -- -- 67
2017-09-30 13:00:00 14.4 6 Norte 12 Norte 0 -- -- 76
2017-09-30 12:00:00 12.3 4 Norte 10 Norte 0 -- -- 94
2017-09-30 11:00:00 11.6 4 Nordeste 8 Norte 0 -- -- 96
2017-09-30 10:00:00 11.8 0 Calma 6 Nordeste 0 -- -- 96
2017-09-30 09:00:00 11.6 2 Nordeste 9 Sudeste 0 -- -- 96
2017-09-30 08:00:00 11.9 3 Norte 6 Noroeste 0 -- -- 96
2017-09-30 07:00:00 12 0 Calma 4 Norte 0 -- -- 96
2017-09-30 06:00:00 11.8 0 Calma 4 Norte 0 -- -- 96
2017-09-30 05:00:00 12 0 Calma 4 Sur 0 -- -- 95
2017-09-30 04:00:00 12 0 Calma 4 Norte 0 -- -- 94
2017-09-30 03:00:00 12.5 2 Norte 6 Norte 0 -- -- 93
2017-09-30 02:00:00 12.6 0 Calma 7 Norte 0 -- -- 93
2017-09-30 01:00:00 12.7 4 Norte 8 Norte 0 -- -- 93
2017-09-30 00:00:00 13.4 2 Norte 10 Noroeste 0 -- -- 93
2017-09-29 23:00:00 14 3 Norte 12 Noroeste 0 -- -- 91
2017-09-29 22:00:00 14.6 5 Norte 9 Norte 0 -- -- 89
2017-09-29 21:00:00 14.6 6 Norte 10 Noroeste 0 -- -- 87
2017-09-29 20:00:00 15.6 5 Norte 12 Noroeste 0 -- -- 82
2017-09-29 19:00:00 17.4 4 Norte 12 Nordeste 0 -- -- 75
2017-09-29 18:00:00 17.8 8 Norte 19 Este 0 -- -- 69
2017-09-29 17:00:00 18.3 5 Norte 15 Norte 0 -- -- 72
2017-09-29 16:00:00 19.1 4 Nordeste 13 Nordeste 0 -- -- 67
2017-09-29 15:00:00 20.4 4 Sur 19 Noroeste 0 -- -- 59
2017-09-29 14:00:00 18.3 7 Norte 19 Noroeste 0 -- -- 62
2017-09-29 13:00:00 20.1 4 Oeste 15 Sur 0 -- -- 52
2017-09-29 12:00:00 21.9 8 Sur 21 Sur 0 -- -- 46
2017-09-29 11:00:00 19.4 7 Sur 17 Sur 0 -- -- 52
2017-09-29 10:00:00 18.1 2 Sur 6 Sur 0 -- -- 57
2017-09-29 09:00:00 13.9 2 Este 11 Oeste 0 -- -- 67
2017-09-29 08:00:00 13.2 4 Oeste 15 Sudoeste 0 -- -- 68
2017-09-29 07:00:00 14.3 10 Oeste 17 Sudoeste 0 -- -- 64
2017-09-29 06:00:00 14.1 4 Norte 9 Oeste 0 -- -- 64
2017-09-29 05:00:00 13.3 5 Noroeste 9 Oeste 0 -- -- 70
2017-09-29 04:00:00 14.1 4 Norte 8 Norte 0 -- -- 66
2017-09-29 03:00:00 14.7 4 Noroeste 10 Oeste 0 -- -- 70
2017-09-29 02:00:00 13.9 5 Noroeste 9 Noroeste 0 -- -- 77
2017-09-29 01:00:00 13.9 4 Noroeste 10 Noroeste 0 -- -- 78
2017-09-29 00:00:00 15.2 3 Norte 8 Oeste 0 -- -- 69
2017-09-28 23:00:00 17.2 4 Oeste 19 Oeste 0 -- -- 64
2017-09-28 22:00:00 18 8 Oeste 21 Oeste 0 -- -- 59
2017-09-28 21:00:00 18.8 9 Sudoeste 18 Oeste 0 -- -- 57
2017-09-28 20:00:00 20.1 5 Oeste 19 Norte 0 -- -- 53
2017-09-28 19:00:00 22.1 4 Norte 18 Noroeste 0 -- -- 41
2017-09-28 18:00:00 25 7 Sudoeste 22 Sudoeste 0 -- -- 28
2017-09-28 17:00:00 24.5 10 Sudoeste 23 Noroeste 0 -- -- 31
2017-09-28 16:00:00 23.7 13 Sudoeste 22 Sur 0 -- -- 33
2017-09-28 15:00:00 23.7 8 Noroeste 23 Sudoeste 0 -- -- 34
2017-09-28 14:00:00 23.6 9 Sudoeste 25 Sur 0 -- -- 38
2017-09-28 13:00:00 22.7 12 Sur 26 Sudeste 0 -- -- 45
2017-09-28 12:00:00 21.5 14 Sur 28 Sur 0 -- -- 50
2017-09-28 11:00:00 19.7 13 Sur 24 Sudoeste 0 -- -- 54
2017-09-28 10:00:00 17.7 8 Oeste 26 Oeste 0 -- -- 62
2017-09-28 09:00:00 14.4 14 Sudoeste 24 Oeste 0 -- -- 73
2017-09-28 08:00:00 13.6 5 Sudoeste 15 Sur 0 -- -- 76
2017-09-28 07:00:00 13.5 2 Noroeste 9 Noroeste 0 -- -- 79
2017-09-28 06:00:00 14.3 5 Noroeste 13 Oeste 0 -- -- 77
2017-09-28 05:00:00 13.7 0 Calma 9 Oeste 0 -- -- 83
2017-09-28 04:00:00 14.2 2 Noroeste 10 Oeste 0 -- -- 84
2017-09-28 03:00:00 14.2 5 Noroeste 10 Oeste 0 -- -- 85
2017-09-28 02:00:00 14.3 3 Norte 7 Oeste 0 -- -- 87
2017-09-28 01:00:00 13.8 2 Noroeste 5 Noroeste 0 -- -- 93
2017-09-28 00:00:00 14.4 0 Calma 7 Noroeste 0 -- -- 88
2017-09-27 23:00:00 14.8 4 Norte 9 Norte 0 -- -- 87
2017-09-27 22:00:00 15.2 5 Norte 12 Norte 0 -- -- 85
2017-09-27 21:00:00 16.3 4 Norte 15 Norte 0 -- -- 79
2017-09-27 20:00:00 18 8 Norte 14 Norte 0 -- -- 67
2017-09-27 19:00:00 19.6 9 Norte 16 Nordeste 0 -- -- 56
2017-09-27 18:00:00 22.3 8 Norte 21 Norte 0 -- -- 47
2017-09-27 17:00:00 23.7 5 Norte 14 Norte 0 -- -- 39
2017-09-27 16:00:00 23.6 5 Sur 24 Oeste 0 -- -- 38
2017-09-27 15:00:00 21.9 8 Oeste 31 Sudoeste 0 -- -- 34
2017-09-27 14:00:00 22.6 8 Sur 27 Sur 0 -- -- 34
2017-09-27 13:00:00 21.6 12 Sur 19 Sur 0 -- -- 37
2017-09-27 12:00:00 20.8 9 Sudoeste 18 Sur 0 -- -- 41
2017-09-27 11:00:00 19.6 8 Sur 15 Sur 0 -- -- 44
2017-09-27 10:00:00 17.7 4 Sur 14 Sudoeste 0 -- -- 51
2017-09-27 09:00:00 13.3 0 Calma 9 Oeste 0 -- -- 58
2017-09-27 08:00:00 13.1 4 Oeste 16 Sudoeste 0 -- -- 59
2017-09-27 07:00:00 12.8 2 Oeste 13 Sur 0 -- -- 60
2017-09-27 06:00:00 13.8 6 Sudoeste 17 Oeste 0 -- -- 55
2017-09-27 05:00:00 13.2 3 Noroeste 17 Oeste 0 -- -- 56
2017-09-27 04:00:00 13.6 4 Noroeste 9 Sudoeste 0 -- -- 55
2017-09-27 03:00:00 13.8 5 Oeste 17 Sudoeste 0 -- -- 51
2017-09-27 02:00:00 14.6 5 Oeste 17 Oeste 0 -- -- 46
2017-09-27 01:00:00 12.3 4 Noroeste 6 Norte 0 -- -- 66
2017-09-27 00:00:00 11.9 0 Calma 9 Norte 0 -- -- 81
2017-09-26 23:00:00 12.5 0 Calma 12 Norte 0 -- -- 75
2017-09-26 22:00:00 13.4 7 Norte 15 Norte 0 -- -- 64
2017-09-26 21:00:00 15 5 Norte 8 Norte 0 -- -- 55
2017-09-26 20:00:00 15.9 5 Norte 17 Nordeste 0 -- -- 55
2017-09-26 19:00:00 17.6 6 Norte 14 Noroeste 0 -- -- 50
2017-09-26 18:00:00 20.9 5 Norte 16 Noroeste 0 -- -- 47
2017-09-26 17:00:00 21.2 7 Norte 15 Noroeste 0 -- -- 52
2017-09-26 16:00:00 21.9 5 Nordeste 20 Sur 0 -- -- 48
2017-09-26 15:00:00 20.5 5 Sudeste 22 Sur 0 -- -- 45
2017-09-26 14:00:00 20.4 10 Sur 24 Sur 0 -- -- 46
2017-09-26 13:00:00 18.7 12 Sur 26 Sur 0 -- -- 55
2017-09-26 12:00:00 17.1 13 Sur 22 Sur 0 -- -- 60
2017-09-26 11:00:00 16.1 7 Sur 17 Sur 0 -- -- 65
2017-09-26 10:00:00 14.3 3 Oeste 15 Sudeste 0 -- -- 67
2017-09-26 09:00:00 10.8 2 Norte 10 Noroeste 0 -- -- 78
2017-09-26 08:00:00 10.4 3 Oeste 13 Oeste 0 -- -- 76
2017-09-26 07:00:00 10.7 5 Sudoeste 15 Sudoeste 0 -- -- 75
2017-09-26 06:00:00 9.8 3 Sudoeste 13 Sudoeste 0 -- -- 81
2017-09-26 05:00:00 9.4 2 Norte 6 Noroeste 0 -- -- 85
2017-09-26 04:00:00 8.3 2 Noroeste 3 Noroeste 0 -- -- 97
2017-09-26 03:00:00 8.3 3 Nordeste 4 Norte 0 -- -- 97
2017-09-26 02:00:00 8 0 Calma 4 Noroeste 0 -- -- 95
2017-09-26 01:00:00 9 0 Calma 5 Noroeste 0 -- -- 95
2017-09-26 00:00:00 9.3 2 Norte 10 Noroeste 0 -- -- 90
2017-09-25 23:00:00 10.7 5 Norte 12 Norte 0 -- -- 85
2017-09-25 22:00:00 10.7 8 Norte 16 Norte 0 -- -- 85
2017-09-25 21:00:00 12.2 9 Norte 13 Noroeste 0 -- -- 67
2017-09-25 20:00:00 13 8 Norte 11 Noroeste 0 -- -- 66
2017-09-25 19:00:00 14.4 6 Norte 14 Nordeste 0 -- -- 62
2017-09-25 18:00:00 15.7 5 Norte 16 Norte 0 -- -- 57
2017-09-25 17:00:00 17.7 5 Norte 12 Norte 0 -- -- 52
2017-09-25 16:00:00 16.9 5 Nordeste 14 Este 0 -- -- 58
2017-09-25 15:00:00 15.2 5 Este 14 Norte 0 -- -- 64
2017-09-25 14:00:00 14.3 5 Noroeste 15 Noroeste 0 -- -- 73
2017-09-25 13:00:00 12.8 5 Norte 12 Noroeste 0 -- -- 75
2017-09-25 12:00:00 12.9 4 Nordeste 13 Noroeste 0.2 -- -- 77
2017-09-25 11:00:00 12.4 2 Nordeste 9 Nordeste 0 -- -- 88
2017-09-25 10:00:00 11.2 2 Sudeste 7 Sudeste 0 -- -- 91
2017-09-25 09:00:00 9.7 3 Norte 12 Noroeste 0 -- -- 93
2017-09-25 08:00:00 9.7 5 Norte 14 Norte 0 -- -- 93
2017-09-25 07:00:00 10.1 3 Nordeste 8 Norte 0 -- -- 96
2017-09-25 06:00:00 10.3 3 Norte 8 Sudeste 0.2 -- -- 95
2017-09-25 05:00:00 10.4 0 Calma 12 Nordeste 0.6 -- -- 95
2017-09-25 04:00:00 10.7 4 Nordeste 12 Norte 0 -- -- 94
2017-09-25 03:00:00 10.4 3 Nordeste 9 Este 0 -- -- 92
2017-09-25 02:00:00 10.2 2 Norte 6 Sur 0 -- -- 93
2017-09-25 01:00:00 10.3 3 Nordeste 12 Norte 0 -- -- 92
2017-09-25 00:00:00 10.5 3 Nordeste 16 Norte 0 -- -- 92
2017-09-24 23:00:00 10.9 5 Norte 12 Noroeste 0 -- -- 94
2017-09-24 22:00:00 11.3 3 Nordeste 14 Sudoeste 0 -- -- 91
2017-09-24 21:00:00 12.7 5 Norte 24 Nordeste 4.2 -- -- 90
2017-09-24 20:00:00 13.7 9 Norte 24 Norte 1.2 -- -- 89
2017-09-24 19:00:00 16.5 12 Norte 23 Noroeste 0 -- -- 63
2017-09-24 18:00:00 19 10 Norte 18 Noroeste 0 -- -- 33
2017-09-24 17:00:00 22.2 8 Sudoeste 30 Sudoeste 0 -- -- 33
2017-09-24 16:00:00 21.8 10 Sudoeste 27 Sudoeste 0 -- -- 27
2017-09-24 15:00:00 22 9 Oeste 30 Sudoeste 0 -- -- 23
2017-09-24 14:00:00 22.4 12 Sudoeste 35 Sur 0 -- -- 21
2017-09-24 13:00:00 22.5 10 Sur 26 Sudeste 0 -- -- 27
2017-09-24 12:00:00 20.8 12 Sur 24 Sur 0 -- -- 29
2017-09-24 11:00:00 18.7 5 Sur 13 Sur 0 -- -- 37
2017-09-24 10:00:00 18.5 4 Sudoeste 18 Sudoeste 0 -- -- 32
2017-09-24 09:00:00 13.9 4 Sudoeste 13 Sudoeste 0 -- -- 36
2017-09-24 08:00:00 13.8 4 Noroeste 9 Sur 0 -- -- 34
2017-09-24 07:00:00 13.1 3 Norte 6 Noroeste 0 -- -- 34
2017-09-24 06:00:00 13.3 4 Oeste 14 Oeste 0 -- -- 39
2017-09-24 05:00:00 13.5 3 Norte 7 Norte 0 -- -- 40
2017-09-24 04:00:00 13.5 2 Noroeste 15 Oeste 0 -- -- 42
2017-09-24 03:00:00 13.5 4 Oeste 13 Oeste 0 -- -- 50
2017-09-24 02:00:00 14 2 Este 15 Sudoeste 0 -- -- 46
2017-09-24 01:00:00 14.1 4 Noroeste 9 Noroeste 0 -- -- 48
2017-09-24 00:00:00 14.3 5 Noroeste 13 Sudoeste 0 -- -- 47
2017-09-23 23:00:00 14.8 4 Sudoeste 11 Sudoeste 0 -- -- 57
2017-09-23 22:00:00 14.6 3 Noroeste 7 Norte 0 -- -- 68
2017-09-23 21:00:00 15.1 3 Norte 7 Norte 0 -- -- 72
2017-09-23 20:00:00 16.7 3 Norte 23 Noroeste 0 -- -- 67
2017-09-23 19:00:00 18.2 14 Noroeste 27 Norte 0 -- -- 55
2017-09-23 18:00:00 22.4 5 Norte 21 Noroeste 0 -- -- 41
2017-09-23 17:00:00 22.7 8 Sudoeste 24 Oeste 0 -- -- 33
2017-09-23 16:00:00 23.4 6 Oeste 23 Sudoeste 0 -- -- 30
2017-09-23 15:00:00 22.9 6 Oeste 23 Noroeste 0 -- -- 35
2017-09-23 14:00:00 22.4 8 Oeste 22 Sur 0 -- -- 36
2017-09-23 13:00:00 22.1 11 Sur 32 Sur 0 -- -- 47
2017-09-23 12:00:00 20.5 15 Sur 29 Sur 0 -- -- 50
2017-09-23 11:00:00 19.7 9 Sur 20 Sur 0 -- -- 54
2017-09-23 10:00:00 17.7 3 Sur 22 Sur 0 -- -- 60
2017-09-23 09:00:00 13.9 13 Sur 32 Sur 0 -- -- 70
2017-09-23 08:00:00 13.8 12 Sur 28 Sur 0 -- -- 69
2017-09-23 07:00:00 13.9 11 Sur 27 Sur 0 -- -- 69
2017-09-23 06:00:00 14.4 15 Sur 30 Sur 0 -- -- 68
2017-09-23 05:00:00 14.5 10 Sudoeste 31 Sur 0 -- -- 67
2017-09-23 04:00:00 14.6 14 Sur 32 Sur 0 -- -- 68
2017-09-23 03:00:00 14.3 7 Sur 21 Sudoeste 0 -- -- 72
2017-09-23 02:00:00 14.6 4 Sudoeste 11 Sur 0 -- -- 72
2017-09-23 01:00:00 13.9 3 Noroeste 5 Noroeste 0 -- -- 77
2017-09-23 00:00:00 13 0 Calma 5 Noroeste 0 -- -- 83